sensor_id;sensor_type;location;lat;lon;timestamp;P1;durP1;ratioP1;P2;durP2;ratioP2
52764;SDS011;38650;44.536;18.664;2024-01-06T00:01:10;12.98;;;11.48;;
52764;SDS011;38650;44.536;18.664;2024-01-06T00:03:37;11.20;;;9.05;;
52764;SDS011;38650;44.536;18.664;2024-01-06T00:06:03;11.93;;;9.98;;
52764;SDS011;38650;44.536;18.664;2024-01-06T00:08:29;14.73;;;11.40;;
52764;SDS011;38650;44.536;18.664;2024-01-06T00:10:54;14.95;;;10.38;;
52764;SDS011;38650;44.536;18.664;2024-01-06T00:13:20;9.50;;;8.20;;
52764;SDS011;38650;44.536;18.664;2024-01-06T00:15:46;12.52;;;10.43;;
52764;SDS011;38650;44.536;18.664;2024-01-06T00:18:11;14.90;;;12.43;;
52764;SDS011;38650;44.536;18.664;2024-01-06T00:20:37;17.60;;;14.65;;
52764;SDS011;38650;44.536;18.664;2024-01-06T00:23:03;16.45;;;14.10;;
52764;SDS011;38650;44.536;18.664;2024-01-06T00:25:29;15.80;;;12.13;;
52764;SDS011;38650;44.536;18.664;2024-01-06T00:27:55;24.55;;;17.95;;
52764;SDS011;38650;44.536;18.664;2024-01-06T00:30:20;18.08;;;14.40;;
52764;SDS011;38650;44.536;18.664;2024-01-06T00:32:46;18.33;;;14.43;;
52764;SDS011;38650;44.536;18.664;2024-01-06T00:35:12;21.60;;;17.33;;
52764;SDS011;38650;44.536;18.664;2024-01-06T00:37:37;21.90;;;17.33;;
52764;SDS011;38650;44.536;18.664;2024-01-06T00:40:03;22.90;;;17.58;;
52764;SDS011;38650;44.536;18.664;2024-01-06T00:42:29;19.58;;;15.43;;
52764;SDS011;38650;44.536;18.664;2024-01-06T00:44:55;16.92;;;13.55;;
52764;SDS011;38650;44.536;18.664;2024-01-06T00:47:21;20.45;;;15.50;;
52764;SDS011;38650;44.536;18.664;2024-01-06T00:49:49;16.65;;;13.32;;
52764;SDS011;38650;44.536;18.664;2024-01-06T00:52:15;13.57;;;11.60;;
52764;SDS011;38650;44.536;18.664;2024-01-06T00:54:40;14.82;;;11.35;;
52764;SDS011;38650;44.536;18.664;2024-01-06T00:57:06;15.05;;;11.68;;
52764;SDS011;38650;44.536;18.664;2024-01-06T00:59:32;12.85;;;11.02;;
52764;SDS011;38650;44.536;18.664;2024-01-06T01:01:58;15.52;;;12.70;;
52764;SDS011;38650;44.536;18.664;2024-01-06T01:04:23;14.68;;;12.65;;
52764;SDS011;38650;44.536;18.664;2024-01-06T01:06:49;16.85;;;13.50;;
52764;SDS011;38650;44.536;18.664;2024-01-06T01:09:15;18.75;;;14.63;;
52764;SDS011;38650;44.536;18.664;2024-01-06T01:11:41;15.68;;;13.60;;
52764;SDS011;38650;44.536;18.664;2024-01-06T01:14:07;16.35;;;14.07;;
52764;SDS011;38650;44.536;18.664;2024-01-06T01:16:33;18.05;;;14.73;;
52764;SDS011;38650;44.536;18.664;2024-01-06T01:18:59;14.82;;;12.93;;
52764;SDS011;38650;44.536;18.664;2024-01-06T01:21:27;17.63;;;14.23;;
52764;SDS011;38650;44.536;18.664;2024-01-06T01:23:53;16.70;;;13.23;;
52764;SDS011;38650;44.536;18.664;2024-01-06T01:26:18;17.25;;;14.27;;
52764;SDS011;38650;44.536;18.664;2024-01-06T01:28:44;16.92;;;14.60;;
52764;SDS011;38650;44.536;18.664;2024-01-06T01:31:10;16.90;;;13.38;;
52764;SDS011;38650;44.536;18.664;2024-01-06T01:33:37;13.40;;;11.82;;
52764;SDS011;38650;44.536;18.664;2024-01-06T01:36:02;16.77;;;13.23;;
52764;SDS011;38650;44.536;18.664;2024-01-06T01:38:28;21.65;;;17.73;;
52764;SDS011;38650;44.536;18.664;2024-01-06T01:40:54;17.48;;;15.52;;
52764;SDS011;38650;44.536;18.664;2024-01-06T01:43:20;17.25;;;14.68;;
52764;SDS011;38650;44.536;18.664;2024-01-06T01:45:54;15.75;;;13.40;;
52764;SDS011;38650;44.536;18.664;2024-01-06T01:48:20;16.48;;;13.82;;
52764;SDS011;38650;44.536;18.664;2024-01-06T01:50:47;15.18;;;12.60;;
52764;SDS011;38650;44.536;18.664;2024-01-06T01:53:14;15.50;;;13.10;;
52764;SDS011;38650;44.536;18.664;2024-01-06T01:55:42;15.02;;;13.10;;
52764;SDS011;38650;44.536;18.664;2024-01-06T01:58:10;12.93;;;11.57;;
52764;SDS011;38650;44.536;18.664;2024-01-06T02:00:38;13.27;;;10.80;;
52764;SDS011;38650;44.536;18.664;2024-01-06T02:03:04;17.08;;;13.48;;
52764;SDS011;38650;44.536;18.664;2024-01-06T02:05:30;18.63;;;14.68;;
52764;SDS011;38650;44.536;18.664;2024-01-06T02:07:56;17.55;;;14.60;;
52764;SDS011;38650;44.536;18.664;2024-01-06T02:10:22;15.88;;;12.43;;
52764;SDS011;38650;44.536;18.664;2024-01-06T02:12:51;25.98;;;21.33;;
52764;SDS011;38650;44.536;18.664;2024-01-06T02:15:17;31.02;;;23.83;;
52764;SDS011;38650;44.536;18.664;2024-01-06T02:17:43;31.52;;;25.20;;
52764;SDS011;38650;44.536;18.664;2024-01-06T02:20:09;29.45;;;23.35;;
52764;SDS011;38650;44.536;18.664;2024-01-06T02:22:36;26.33;;;20.90;;
52764;SDS011;38650;44.536;18.664;2024-01-06T02:25:03;24.73;;;20.13;;
52764;SDS011;38650;44.536;18.664;2024-01-06T02:27:37;25.15;;;21.10;;
52764;SDS011;38650;44.536;18.664;2024-01-06T02:30:03;22.55;;;19.05;;
52764;SDS011;38650;44.536;18.664;2024-01-06T02:32:30;21.70;;;17.80;;
52764;SDS011;38650;44.536;18.664;2024-01-06T02:34:56;21.15;;;17.33;;
52764;SDS011;38650;44.536;18.664;2024-01-06T02:37:22;19.08;;;15.20;;
52764;SDS011;38650;44.536;18.664;2024-01-06T02:39:47;15.10;;;13.52;;
52764;SDS011;38650;44.536;18.664;2024-01-06T02:42:13;15.80;;;13.32;;
52764;SDS011;38650;44.536;18.664;2024-01-06T02:44:39;16.58;;;13.15;;
52764;SDS011;38650;44.536;18.664;2024-01-06T02:47:04;16.02;;;12.32;;
52764;SDS011;38650;44.536;18.664;2024-01-06T02:49:30;14.75;;;12.00;;
52764;SDS011;38650;44.536;18.664;2024-01-06T02:51:56;13.20;;;11.05;;
52764;SDS011;38650;44.536;18.664;2024-01-06T02:54:21;13.18;;;10.85;;
52764;SDS011;38650;44.536;18.664;2024-01-06T02:56:47;15.02;;;12.10;;
52764;SDS011;38650;44.536;18.664;2024-01-06T02:59:13;13.13;;;10.70;;
52764;SDS011;38650;44.536;18.664;2024-01-06T03:01:38;12.00;;;10.13;;
52764;SDS011;38650;44.536;18.664;2024-01-06T03:04:04;11.32;;;9.30;;
52764;SDS011;38650;44.536;18.664;2024-01-06T03:06:30;17.98;;;12.35;;
52764;SDS011;38650;44.536;18.664;2024-01-06T03:08:55;18.15;;;14.50;;
52764;SDS011;38650;44.536;18.664;2024-01-06T03:11:22;14.90;;;12.77;;
52764;SDS011;38650;44.536;18.664;2024-01-06T03:13:47;16.75;;;13.85;;
52764;SDS011;38650;44.536;18.664;2024-01-06T03:16:13;14.65;;;12.15;;
52764;SDS011;38650;44.536;18.664;2024-01-06T03:18:39;13.13;;;11.70;;
52764;SDS011;38650;44.536;18.664;2024-01-06T03:21:04;12.85;;;10.50;;
52764;SDS011;38650;44.536;18.664;2024-01-06T03:23:30;11.77;;;10.38;;
52764;SDS011;38650;44.536;18.664;2024-01-06T03:25:56;14.68;;;11.48;;
52764;SDS011;38650;44.536;18.664;2024-01-06T03:28:22;12.02;;;10.57;;
52764;SDS011;38650;44.536;18.664;2024-01-06T03:30:47;11.80;;;10.18;;
52764;SDS011;38650;44.536;18.664;2024-01-06T03:33:13;11.70;;;10.18;;
52764;SDS011;38650;44.536;18.664;2024-01-06T03:35:39;16.20;;;12.40;;
52764;SDS011;38650;44.536;18.664;2024-01-06T03:38:04;16.45;;;11.98;;
52764;SDS011;38650;44.536;18.664;2024-01-06T03:40:30;12.82;;;10.48;;
52764;SDS011;38650;44.536;18.664;2024-01-06T03:42:56;11.93;;;9.98;;
52764;SDS011;38650;44.536;18.664;2024-01-06T03:45:21;13.45;;;10.43;;
52764;SDS011;38650;44.536;18.664;2024-01-06T03:47:47;10.73;;;9.30;;
52764;SDS011;38650;44.536;18.664;2024-01-06T03:50:13;10.25;;;8.60;;
52764;SDS011;38650;44.536;18.664;2024-01-06T03:52:38;10.50;;;9.40;;
52764;SDS011;38650;44.536;18.664;2024-01-06T03:55:05;11.35;;;9.75;;
52764;SDS011;38650;44.536;18.664;2024-01-06T03:57:31;13.77;;;11.40;;
52764;SDS011;38650;44.536;18.664;2024-01-06T03:59:57;12.80;;;10.27;;
52764;SDS011;38650;44.536;18.664;2024-01-06T04:02:22;10.27;;;9.15;;
52764;SDS011;38650;44.536;18.664;2024-01-06T04:04:48;15.82;;;11.25;;
52764;SDS011;38650;44.536;18.664;2024-01-06T04:07:14;14.30;;;12.60;;
52764;SDS011;38650;44.536;18.664;2024-01-06T04:09:43;16.33;;;13.10;;
52764;SDS011;38650;44.536;18.664;2024-01-06T04:12:09;15.35;;;11.35;;
52764;SDS011;38650;44.536;18.664;2024-01-06T04:14:35;14.50;;;12.23;;
52764;SDS011;38650;44.536;18.664;2024-01-06T04:17:00;13.00;;;10.70;;
52764;SDS011;38650;44.536;18.664;2024-01-06T04:19:26;11.02;;;9.57;;
52764;SDS011;38650;44.536;18.664;2024-01-06T04:21:51;10.10;;;8.80;;
52764;SDS011;38650;44.536;18.664;2024-01-06T04:24:17;14.73;;;12.18;;
52764;SDS011;38650;44.536;18.664;2024-01-06T04:26:43;15.50;;;12.45;;
52764;SDS011;38650;44.536;18.664;2024-01-06T04:29:10;26.23;;;16.63;;
52764;SDS011;38650;44.536;18.664;2024-01-06T04:31:37;21.08;;;17.60;;
52764;SDS011;38650;44.536;18.664;2024-01-06T04:34:02;28.17;;;20.77;;
52764;SDS011;38650;44.536;18.664;2024-01-06T04:36:28;22.88;;;18.92;;
52764;SDS011;38650;44.536;18.664;2024-01-06T04:38:54;25.20;;;20.00;;
52764;SDS011;38650;44.536;18.664;2024-01-06T04:41:20;27.50;;;22.02;;
52764;SDS011;38650;44.536;18.664;2024-01-06T04:43:46;32.25;;;26.25;;
52764;SDS011;38650;44.536;18.664;2024-01-06T04:46:12;31.13;;;25.40;;
52764;SDS011;38650;44.536;18.664;2024-01-06T04:48:40;32.60;;;24.80;;
52764;SDS011;38650;44.536;18.664;2024-01-06T04:51:06;26.58;;;21.33;;
52764;SDS011;38650;44.536;18.664;2024-01-06T04:53:35;28.75;;;22.10;;
52764;SDS011;38650;44.536;18.664;2024-01-06T04:56:01;21.20;;;18.70;;
52764;SDS011;38650;44.536;18.664;2024-01-06T04:58:27;25.23;;;20.20;;
52764;SDS011;38650;44.536;18.664;2024-01-06T05:00:52;21.85;;;18.27;;
52764;SDS011;38650;44.536;18.664;2024-01-06T05:03:18;25.98;;;20.08;;
52764;SDS011;38650;44.536;18.664;2024-01-06T05:05:44;22.60;;;18.98;;
52764;SDS011;38650;44.536;18.664;2024-01-06T05:08:10;23.50;;;20.98;;
52764;SDS011;38650;44.536;18.664;2024-01-06T05:10:36;23.45;;;18.00;;
52764;SDS011;38650;44.536;18.664;2024-01-06T05:13:01;20.60;;;17.83;;
52764;SDS011;38650;44.536;18.664;2024-01-06T05:15:27;17.58;;;15.52;;
52764;SDS011;38650;44.536;18.664;2024-01-06T05:17:53;16.60;;;14.52;;
52764;SDS011;38650;44.536;18.664;2024-01-06T05:20:18;15.48;;;13.25;;
52764;SDS011;38650;44.536;18.664;2024-01-06T05:22:44;13.13;;;11.55;;
52764;SDS011;38650;44.536;18.664;2024-01-06T05:25:10;11.90;;;10.20;;
52764;SDS011;38650;44.536;18.664;2024-01-06T05:27:36;10.52;;;8.55;;
52764;SDS011;38650;44.536;18.664;2024-01-06T05:30:01;10.07;;;8.75;;
52764;SDS011;38650;44.536;18.664;2024-01-06T05:32:27;9.52;;;8.30;;
52764;SDS011;38650;44.536;18.664;2024-01-06T05:34:53;8.55;;;7.65;;
52764;SDS011;38650;44.536;18.664;2024-01-06T05:37:19;8.43;;;7.15;;
52764;SDS011;38650;44.536;18.664;2024-01-06T05:39:44;8.10;;;7.28;;
52764;SDS011;38650;44.536;18.664;2024-01-06T05:42:10;8.05;;;7.07;;
52764;SDS011;38650;44.536;18.664;2024-01-06T05:44:37;9.20;;;7.15;;
52764;SDS011;38650;44.536;18.664;2024-01-06T05:47:03;6.97;;;6.10;;
52764;SDS011;38650;44.536;18.664;2024-01-06T05:49:29;8.18;;;6.63;;
52764;SDS011;38650;44.536;18.664;2024-01-06T05:51:54;6.88;;;6.18;;
52764;SDS011;38650;44.536;18.664;2024-01-06T05:54:20;7.70;;;6.63;;
52764;SDS011;38650;44.536;18.664;2024-01-06T05:56:46;7.00;;;5.80;;
52764;SDS011;38650;44.536;18.664;2024-01-06T05:59:12;7.53;;;6.68;;
52764;SDS011;38650;44.536;18.664;2024-01-06T06:01:38;9.88;;;8.05;;
52764;SDS011;38650;44.536;18.664;2024-01-06T06:04:03;8.23;;;7.35;;
52764;SDS011;38650;44.536;18.664;2024-01-06T06:06:29;13.65;;;10.75;;
52764;SDS011;38650;44.536;18.664;2024-01-06T06:08:55;13.07;;;11.38;;
52764;SDS011;38650;44.536;18.664;2024-01-06T06:11:21;17.33;;;13.18;;
52764;SDS011;38650;44.536;18.664;2024-01-06T06:13:47;16.65;;;13.73;;
52764;SDS011;38650;44.536;18.664;2024-01-06T06:16:12;20.67;;;16.27;;
52764;SDS011;38650;44.536;18.664;2024-01-06T06:18:38;18.80;;;15.40;;
52764;SDS011;38650;44.536;18.664;2024-01-06T06:21:05;19.55;;;16.08;;
52764;SDS011;38650;44.536;18.664;2024-01-06T06:23:31;20.45;;;16.92;;
52764;SDS011;38650;44.536;18.664;2024-01-06T06:25:57;19.42;;;16.63;;
52764;SDS011;38650;44.536;18.664;2024-01-06T06:28:24;19.88;;;16.27;;
52764;SDS011;38650;44.536;18.664;2024-01-06T06:30:50;21.65;;;16.77;;
52764;SDS011;38650;44.536;18.664;2024-01-06T06:33:16;11.63;;;9.60;;
52764;SDS011;38650;44.536;18.664;2024-01-06T06:35:42;20.35;;;14.82;;
52764;SDS011;38650;44.536;18.664;2024-01-06T06:38:08;20.17;;;16.67;;
52764;SDS011;38650;44.536;18.664;2024-01-06T06:40:33;20.65;;;17.45;;
52764;SDS011;38650;44.536;18.664;2024-01-06T06:42:59;23.05;;;18.58;;
52764;SDS011;38650;44.536;18.664;2024-01-06T06:45:25;24.30;;;18.75;;
52764;SDS011;38650;44.536;18.664;2024-01-06T06:47:50;19.10;;;16.98;;
52764;SDS011;38650;44.536;18.664;2024-01-06T06:50:16;20.25;;;16.13;;
52764;SDS011;38650;44.536;18.664;2024-01-06T06:52:43;17.83;;;15.43;;
52764;SDS011;38650;44.536;18.664;2024-01-06T06:55:09;18.92;;;15.52;;
52764;SDS011;38650;44.536;18.664;2024-01-06T06:57:35;20.52;;;16.20;;
52764;SDS011;38650;44.536;18.664;2024-01-06T07:00:01;17.75;;;15.23;;
52764;SDS011;38650;44.536;18.664;2024-01-06T07:02:27;18.10;;;15.85;;
52764;SDS011;38650;44.536;18.664;2024-01-06T07:04:53;22.17;;;17.52;;
52764;SDS011;38650;44.536;18.664;2024-01-06T07:07:19;19.52;;;16.33;;
52764;SDS011;38650;44.536;18.664;2024-01-06T07:09:44;20.48;;;16.17;;
52764;SDS011;38650;44.536;18.664;2024-01-06T07:12:10;21.33;;;17.63;;
52764;SDS011;38650;44.536;18.664;2024-01-06T07:14:36;19.27;;;17.15;;
52764;SDS011;38650;44.536;18.664;2024-01-06T07:17:02;22.95;;;18.58;;
52764;SDS011;38650;44.536;18.664;2024-01-06T07:19:29;21.48;;;18.95;;
52764;SDS011;38650;44.536;18.664;2024-01-06T07:21:56;21.15;;;18.15;;
52764;SDS011;38650;44.536;18.664;2024-01-06T07:24:22;19.48;;;16.38;;
52764;SDS011;38650;44.536;18.664;2024-01-06T07:26:48;21.45;;;18.65;;
52764;SDS011;38650;44.536;18.664;2024-01-06T07:29:13;19.77;;;17.42;;
52764;SDS011;38650;44.536;18.664;2024-01-06T07:31:39;19.65;;;17.55;;
52764;SDS011;38650;44.536;18.664;2024-01-06T07:34:05;25.42;;;21.58;;
52764;SDS011;38650;44.536;18.664;2024-01-06T07:36:31;25.30;;;22.45;;
52764;SDS011;38650;44.536;18.664;2024-01-06T07:38:57;25.50;;;22.63;;
52764;SDS011;38650;44.536;18.664;2024-01-06T07:41:23;16.23;;;14.50;;
52764;SDS011;38650;44.536;18.664;2024-01-06T07:43:48;19.77;;;15.07;;
52764;SDS011;38650;44.536;18.664;2024-01-06T07:46:14;17.25;;;13.50;;
52764;SDS011;38650;44.536;18.664;2024-01-06T07:48:40;15.50;;;12.70;;
52764;SDS011;38650;44.536;18.664;2024-01-06T07:51:06;10.95;;;9.55;;
52764;SDS011;38650;44.536;18.664;2024-01-06T07:53:31;6.13;;;5.53;;
52764;SDS011;38650;44.536;18.664;2024-01-06T07:55:58;6.10;;;5.47;;
52764;SDS011;38650;44.536;18.664;2024-01-06T07:58:24;13.20;;;11.05;;
52764;SDS011;38650;44.536;18.664;2024-01-06T08:00:49;22.45;;;19.30;;
52764;SDS011;38650;44.536;18.664;2024-01-06T08:03:15;11.82;;;10.55;;
52764;SDS011;38650;44.536;18.664;2024-01-06T08:05:41;13.30;;;11.80;;
52764;SDS011;38650;44.536;18.664;2024-01-06T08:08:07;16.58;;;14.88;;
52764;SDS011;38650;44.536;18.664;2024-01-06T08:10:33;8.98;;;8.07;;
52764;SDS011;38650;44.536;18.664;2024-01-06T08:12:58;3.53;;;2.55;;
52764;SDS011;38650;44.536;18.664;2024-01-06T08:15:24;2.55;;;2.35;;
52764;SDS011;38650;44.536;18.664;2024-01-06T08:17:50;12.43;;;9.80;;
52764;SDS011;38650;44.536;18.664;2024-01-06T08:20:15;6.05;;;5.45;;
52764;SDS011;38650;44.536;18.664;2024-01-06T08:22:41;7.28;;;6.57;;
52764;SDS011;38650;44.536;18.664;2024-01-06T08:25:07;6.97;;;6.15;;
52764;SDS011;38650;44.536;18.664;2024-01-06T08:27:33;6.78;;;6.07;;
52764;SDS011;38650;44.536;18.664;2024-01-06T08:29:59;7.30;;;6.60;;
52764;SDS011;38650;44.536;18.664;2024-01-06T08:32:25;7.30;;;6.60;;
52764;SDS011;38650;44.536;18.664;2024-01-06T08:34:50;8.43;;;7.35;;
52764;SDS011;38650;44.536;18.664;2024-01-06T08:37:16;1.20;;;1.10;;
52764;SDS011;38650;44.536;18.664;2024-01-06T08:39:42;1.70;;;1.60;;
52764;SDS011;38650;44.536;18.664;2024-01-06T08:42:07;3.53;;;3.22;;
52764;SDS011;38650;44.536;18.664;2024-01-06T08:44:33;1.48;;;1.15;;
52764;SDS011;38650;44.536;18.664;2024-01-06T08:46:59;1.33;;;1.20;;
52764;SDS011;38650;44.536;18.664;2024-01-06T08:49:24;3.42;;;2.97;;
52764;SDS011;38650;44.536;18.664;2024-01-06T08:51:50;8.35;;;7.40;;
52764;SDS011;38650;44.536;18.664;2024-01-06T08:54:16;7.20;;;6.50;;
52764;SDS011;38650;44.536;18.664;2024-01-06T08:56:41;7.03;;;6.32;;
52764;SDS011;38650;44.536;18.664;2024-01-06T08:59:07;6.20;;;5.60;;
52764;SDS011;38650;44.536;18.664;2024-01-06T09:01:33;7.60;;;6.90;;
52764;SDS011;38650;44.536;18.664;2024-01-06T09:04:01;16.83;;;14.07;;
52764;SDS011;38650;44.536;18.664;2024-01-06T09:06:27;7.65;;;6.85;;
52764;SDS011;38650;44.536;18.664;2024-01-06T09:08:53;6.03;;;5.38;;
52764;SDS011;38650;44.536;18.664;2024-01-06T09:11:18;5.90;;;4.88;;
52764;SDS011;38650;44.536;18.664;2024-01-06T09:13:44;5.75;;;5.20;;
52764;SDS011;38650;44.536;18.664;2024-01-06T09:16:10;6.38;;;5.30;;
52764;SDS011;38650;44.536;18.664;2024-01-06T09:18:36;9.43;;;8.25;;
52764;SDS011;38650;44.536;18.664;2024-01-06T09:21:01;11.05;;;8.82;;
52764;SDS011;38650;44.536;18.664;2024-01-06T09:23:28;8.52;;;7.63;;
52764;SDS011;38650;44.536;18.664;2024-01-06T09:25:54;10.07;;;6.70;;
52764;SDS011;38650;44.536;18.664;2024-01-06T09:28:20;17.77;;;15.98;;
52764;SDS011;38650;44.536;18.664;2024-01-06T09:30:48;18.38;;;16.58;;
52764;SDS011;38650;44.536;18.664;2024-01-06T09:33:14;6.20;;;5.60;;
52764;SDS011;38650;44.536;18.664;2024-01-06T09:35:42;3.55;;;2.90;;
52764;SDS011;38650;44.536;18.664;2024-01-06T09:38:09;7.68;;;6.25;;
52764;SDS011;38650;44.536;18.664;2024-01-06T09:40:35;4.38;;;3.47;;
52764;SDS011;38650;44.536;18.664;2024-01-06T09:43:08;8.00;;;7.20;;
52764;SDS011;38650;44.536;18.664;2024-01-06T09:45:34;6.72;;;6.03;;
52764;SDS011;38650;44.536;18.664;2024-01-06T09:48:00;5.97;;;5.30;;
52764;SDS011;38650;44.536;18.664;2024-01-06T09:50:35;6.78;;;5.85;;
52764;SDS011;38650;44.536;18.664;2024-01-06T09:53:01;18.60;;;16.52;;
52764;SDS011;38650;44.536;18.664;2024-01-06T09:55:30;19.00;;;17.00;;
52764;SDS011;38650;44.536;18.664;2024-01-06T09:57:56;42.70;;;38.03;;
52764;SDS011;38650;44.536;18.664;2024-01-06T10:00:22;44.78;;;39.85;;
52764;SDS011;38650;44.536;18.664;2024-01-06T10:02:48;61.17;;;54.65;;
52764;SDS011;38650;44.536;18.664;2024-01-06T10:05:17;51.05;;;45.95;;
52764;SDS011;38650;44.536;18.664;2024-01-06T10:07:44;89.35;;;80.18;;
52764;SDS011;38650;44.536;18.664;2024-01-06T10:10:10;53.80;;;48.35;;
52764;SDS011;38650;44.536;18.664;2024-01-06T10:12:37;41.15;;;37.03;;
52764;SDS011;38650;44.536;18.664;2024-01-06T10:15:04;36.88;;;33.33;;
52764;SDS011;38650;44.536;18.664;2024-01-06T10:17:31;27.33;;;24.50;;
52764;SDS011;38650;44.536;18.664;2024-01-06T10:19:57;14.48;;;13.07;;
52764;SDS011;38650;44.536;18.664;2024-01-06T10:22:24;10.50;;;9.50;;
52764;SDS011;38650;44.536;18.664;2024-01-06T10:24:50;9.57;;;8.68;;
52764;SDS011;38650;44.536;18.664;2024-01-06T10:27:16;5.45;;;4.90;;
52764;SDS011;38650;44.536;18.664;2024-01-06T10:29:41;6.60;;;6.00;;
52764;SDS011;38650;44.536;18.664;2024-01-06T10:32:07;6.32;;;5.43;;
52764;SDS011;38650;44.536;18.664;2024-01-06T10:34:33;5.68;;;4.78;;
52764;SDS011;38650;44.536;18.664;2024-01-06T10:37:01;4.72;;;4.22;;
52764;SDS011;38650;44.536;18.664;2024-01-06T10:39:27;4.50;;;4.10;;
52764;SDS011;38650;44.536;18.664;2024-01-06T10:41:54;4.95;;;4.45;;
52764;SDS011;38650;44.536;18.664;2024-01-06T10:44:21;4.53;;;4.07;;
52764;SDS011;38650;44.536;18.664;2024-01-06T10:46:48;4.40;;;4.00;;
52764;SDS011;38650;44.536;18.664;2024-01-06T10:49:15;6.45;;;5.70;;
52764;SDS011;38650;44.536;18.664;2024-01-06T10:51:46;7.18;;;6.10;;
52764;SDS011;38650;44.536;18.664;2024-01-06T10:54:14;5.03;;;4.47;;
52764;SDS011;38650;44.536;18.664;2024-01-06T10:56:41;4.82;;;4.32;;
52764;SDS011;38650;44.536;18.664;2024-01-06T10:59:08;4.78;;;4.22;;
52764;SDS011;38650;44.536;18.664;2024-01-06T11:01:36;4.53;;;4.13;;
52764;SDS011;38650;44.536;18.664;2024-01-06T11:04:04;5.85;;;5.25;;
52764;SDS011;38650;44.536;18.664;2024-01-06T11:06:30;7.43;;;6.68;;
52764;SDS011;38650;44.536;18.664;2024-01-06T11:11:36;7.40;;;6.65;;
52764;SDS011;38650;44.536;18.664;2024-01-06T11:16:46;7.15;;;6.45;;
52764;SDS011;38650;44.536;18.664;2024-01-06T11:19:58;3.08;;;2.78;;
52764;SDS011;38650;44.536;18.664;2024-01-06T11:22:17;7.07;;;5.60;;
52764;SDS011;38650;44.536;18.664;2024-01-06T11:24:52;6.32;;;5.10;;
52764;SDS011;38650;44.536;18.664;2024-01-06T11:27:22;2.30;;;1.77;;
52764;SDS011;38650;44.536;18.664;2024-01-06T11:29:51;2.50;;;2.30;;
52764;SDS011;38650;44.536;18.664;2024-01-06T11:32:29;2.08;;;1.83;;
52764;SDS011;38650;44.536;18.664;2024-01-06T11:35:04;1.55;;;1.20;;
52764;SDS011;38650;44.536;18.664;2024-01-06T11:40:11;1.83;;;1.73;;
52764;SDS011;38650;44.536;18.664;2024-01-06T11:43:00;1.40;;;1.23;;
52764;SDS011;38650;44.536;18.664;2024-01-06T11:45:33;13.55;;;10.73;;
52764;SDS011;38650;44.536;18.664;2024-01-06T11:48:04;5.38;;;4.88;;
52764;SDS011;38650;44.536;18.664;2024-01-06T11:50:31;3.58;;;3.13;;
52764;SDS011;38650;44.536;18.664;2024-01-06T11:52:58;6.45;;;4.15;;
52764;SDS011;38650;44.536;18.664;2024-01-06T11:55:25;2.13;;;1.88;;
52764;SDS011;38650;44.536;18.664;2024-01-06T11:57:55;3.70;;;3.05;;
52764;SDS011;38650;44.536;18.664;2024-01-06T12:00:21;4.53;;;3.47;;
52764;SDS011;38650;44.536;18.664;2024-01-06T12:02:47;5.00;;;4.50;;
52764;SDS011;38650;44.536;18.664;2024-01-06T12:05:13;1.63;;;1.52;;
52764;SDS011;38650;44.536;18.664;2024-01-06T12:07:43;4.80;;;3.20;;
52764;SDS011;38650;44.536;18.664;2024-01-06T12:10:19;6.10;;;5.50;;
52764;SDS011;38650;44.536;18.664;2024-01-06T12:12:56;4.93;;;4.40;;
52764;SDS011;38650;44.536;18.664;2024-01-06T12:15:26;4.22;;;3.70;;
52764;SDS011;38650;44.536;18.664;2024-01-06T12:17:54;5.32;;;4.68;;
52764;SDS011;38650;44.536;18.664;2024-01-06T12:20:21;4.53;;;3.22;;
52764;SDS011;38650;44.536;18.664;2024-01-06T12:22:48;8.40;;;6.70;;
52764;SDS011;38650;44.536;18.664;2024-01-06T12:25:16;6.95;;;6.18;;
52764;SDS011;38650;44.536;18.664;2024-01-06T12:27:43;6.63;;;5.93;;
52764;SDS011;38650;44.536;18.664;2024-01-06T12:30:18;7.20;;;6.28;;
52764;SDS011;38650;44.536;18.664;2024-01-06T12:32:46;6.40;;;4.97;;
52764;SDS011;38650;44.536;18.664;2024-01-06T12:35:14;5.53;;;4.88;;
52764;SDS011;38650;44.536;18.664;2024-01-06T12:37:43;9.60;;;8.38;;
52764;SDS011;38650;44.536;18.664;2024-01-06T12:40:10;7.68;;;5.75;;
52764;SDS011;38650;44.536;18.664;2024-01-06T12:42:37;4.28;;;3.72;;
52764;SDS011;38650;44.536;18.664;2024-01-06T12:45:03;4.95;;;3.80;;
52764;SDS011;38650;44.536;18.664;2024-01-06T12:47:31;4.63;;;3.88;;
52764;SDS011;38650;44.536;18.664;2024-01-06T12:49:57;6.40;;;5.50;;
52764;SDS011;38650;44.536;18.664;2024-01-06T12:52:23;4.82;;;4.30;;
52764;SDS011;38650;44.536;18.664;2024-01-06T12:54:49;10.65;;;9.55;;
52764;SDS011;38650;44.536;18.664;2024-01-06T12:57:15;9.90;;;8.90;;
52764;SDS011;38650;44.536;18.664;2024-01-06T12:59:41;8.63;;;7.68;;
52764;SDS011;38650;44.536;18.664;2024-01-06T13:02:06;7.53;;;6.82;;
52764;SDS011;38650;44.536;18.664;2024-01-06T13:04:33;5.30;;;4.80;;
52764;SDS011;38650;44.536;18.664;2024-01-06T13:06:59;6.20;;;5.70;;
52764;SDS011;38650;44.536;18.664;2024-01-06T13:09:26;4.30;;;3.60;;
52764;SDS011;38650;44.536;18.664;2024-01-06T13:11:53;5.40;;;4.30;;
52764;SDS011;38650;44.536;18.664;2024-01-06T13:14:20;4.53;;;4.13;;
52764;SDS011;38650;44.536;18.664;2024-01-06T13:16:46;2.90;;;2.60;;
52764;SDS011;38650;44.536;18.664;2024-01-06T13:19:12;6.32;;;4.90;;
52764;SDS011;38650;44.536;18.664;2024-01-06T13:21:38;4.68;;;4.20;;
52764;SDS011;38650;44.536;18.664;2024-01-06T13:24:05;3.90;;;3.60;;
52764;SDS011;38650;44.536;18.664;2024-01-06T13:26:31;3.90;;;3.60;;
52764;SDS011;38650;44.536;18.664;2024-01-06T13:28:57;3.88;;;3.58;;
52764;SDS011;38650;44.536;18.664;2024-01-06T13:31:23;3.58;;;3.20;;
52764;SDS011;38650;44.536;18.664;2024-01-06T13:33:49;3.92;;;3.53;;
52764;SDS011;38650;44.536;18.664;2024-01-06T13:36:17;4.15;;;3.75;;
52764;SDS011;38650;44.536;18.664;2024-01-06T13:38:43;3.15;;;2.88;;
52764;SDS011;38650;44.536;18.664;2024-01-06T13:41:09;7.22;;;5.82;;
52764;SDS011;38650;44.536;18.664;2024-01-06T13:43:34;5.70;;;5.15;;
52764;SDS011;38650;44.536;18.664;2024-01-06T13:46:00;5.45;;;4.95;;
52764;SDS011;38650;44.536;18.664;2024-01-06T13:48:26;5.80;;;5.30;;
52764;SDS011;38650;44.536;18.664;2024-01-06T13:50:52;5.70;;;5.20;;
52764;SDS011;38650;44.536;18.664;2024-01-06T13:53:18;6.00;;;5.40;;
52764;SDS011;38650;44.536;18.664;2024-01-06T13:55:44;7.78;;;7.05;;
52764;SDS011;38650;44.536;18.664;2024-01-06T13:58:10;8.95;;;8.05;;
52764;SDS011;38650;44.536;18.664;2024-01-06T14:00:36;14.52;;;13.02;;
52764;SDS011;38650;44.536;18.664;2024-01-06T14:03:02;10.63;;;9.55;;
52764;SDS011;38650;44.536;18.664;2024-01-06T14:05:28;13.25;;;11.85;;
52764;SDS011;38650;44.536;18.664;2024-01-06T14:07:54;10.20;;;9.30;;
52764;SDS011;38650;44.536;18.664;2024-01-06T14:10:20;12.63;;;10.70;;
52764;SDS011;38650;44.536;18.664;2024-01-06T14:12:46;9.80;;;8.93;;
52764;SDS011;38650;44.536;18.664;2024-01-06T14:15:12;9.88;;;8.98;;
52764;SDS011;38650;44.536;18.664;2024-01-06T14:17:38;8.98;;;8.18;;
52764;SDS011;38650;44.536;18.664;2024-01-06T14:20:04;8.23;;;7.53;;
52764;SDS011;38650;44.536;18.664;2024-01-06T14:22:30;8.23;;;7.43;;
52764;SDS011;38650;44.536;18.664;2024-01-06T14:24:56;7.47;;;6.80;;